createdAt,value
2017-12-30T00:02:01.767Z,84.40
2017-12-30T00:04:29.406Z,84.40
2017-12-30T00:06:57.054Z,84.40
2017-12-30T00:09:24.674Z,84.30
2017-12-30T00:11:53.059Z,84.30
2017-12-30T00:14:20.630Z,83.80
2017-12-30T00:16:48.249Z,83.80
2017-12-30T00:19:16.304Z,83.40
2017-12-30T00:21:43.989Z,83.40
2017-12-30T00:24:11.573Z,83.10
2017-12-30T00:26:39.164Z,83.20
2017-12-30T00:29:06.823Z,83.20
2017-12-30T00:31:34.407Z,83.10
2017-12-30T00:34:02.007Z,82.70
2017-12-30T00:36:29.601Z,82.80
2017-12-30T00:38:57.266Z,82.60
2017-12-30T00:41:24.946Z,82.30
2017-12-30T00:43:52.590Z,82.10
2017-12-30T00:46:20.235Z,82.20
2017-12-30T00:48:47.844Z,82.10
2017-12-30T00:51:15.455Z,81.60
2017-12-30T00:53:43.108Z,81.70
2017-12-30T00:56:11.424Z,82.00
2017-12-30T00:58:39.013Z,81.50
2017-12-30T01:01:06.622Z,82.00
2017-12-30T01:03:34.265Z,81.90
2017-12-30T01:06:01.926Z,81.70
2017-12-30T01:08:29.518Z,81.90
2017-12-30T01:10:57.168Z,82.20
2017-12-30T01:13:25.049Z,82.30
2017-12-30T01:15:52.818Z,82.20
2017-12-30T01:18:20.853Z,82.00
2017-12-30T01:20:48.430Z,82.00
2017-12-30T01:23:16.086Z,81.70
2017-12-30T01:25:43.795Z,82.00
2017-12-30T01:28:11.418Z,82.20
2017-12-30T01:30:39.050Z,82.00
2017-12-30T01:33:06.635Z,82.00
2017-12-30T01:35:34.290Z,81.40
2017-12-30T01:38:01.912Z,81.50
2017-12-30T01:40:29.509Z,82.10
2017-12-30T01:42:57.070Z,82.00
2017-12-30T01:45:24.671Z,81.60
2017-12-30T01:47:52.360Z,81.40
2017-12-30T01:50:19.962Z,81.90
2017-12-30T01:52:47.559Z,81.70
2017-12-30T01:55:15.158Z,81.30
2017-12-30T01:57:42.774Z,81.60
2017-12-30T02:00:10.416Z,80.70
2017-12-30T02:02:38.048Z,81.40
2017-12-30T02:05:05.602Z,81.20
2017-12-30T02:07:33.215Z,81.40
2017-12-30T02:10:00.790Z,81.60
2017-12-30T02:12:28.382Z,82.10
2017-12-30T02:14:55.965Z,81.70
2017-12-30T02:17:23.569Z,81.60
2017-12-30T02:19:51.167Z,82.10
2017-12-30T02:22:18.758Z,82.30
2017-12-30T02:24:46.341Z,82.30
2017-12-30T02:27:13.926Z,82.20
2017-12-30T02:29:41.546Z,82.30
2017-12-30T02:32:09.151Z,82.20
2017-12-30T02:34:36.779Z,82.60
2017-12-30T02:37:04.336Z,82.60
2017-12-30T02:39:31.897Z,82.60
2017-12-30T02:41:59.492Z,82.80
2017-12-30T02:44:27.094Z,83.00
2017-12-30T02:46:54.683Z,83.10
2017-12-30T02:49:22.278Z,83.10
2017-12-30T02:51:50.276Z,83.20
2017-12-30T02:54:17.844Z,83.20
2017-12-30T02:56:45.459Z,83.40
2017-12-30T02:59:13.052Z,83.50
2017-12-30T03:01:40.681Z,83.50
2017-12-30T03:04:08.242Z,83.60
2017-12-30T03:06:36.001Z,83.60
2017-12-30T03:09:03.592Z,83.40
2017-12-30T03:11:31.198Z,83.50
2017-12-30T03:13:59.230Z,83.90
2017-12-30T03:16:26.854Z,83.90
2017-12-30T03:18:54.697Z,83.90
2017-12-30T03:21:22.299Z,83.90
2017-12-30T03:23:49.898Z,83.90
2017-12-30T03:26:17.523Z,84.10
2017-12-30T03:28:45.087Z,84.10
2017-12-30T03:31:12.687Z,84.20
2017-12-30T03:33:40.304Z,84.50
2017-12-30T03:36:07.894Z,84.50
2017-12-30T03:38:35.471Z,84.50
2017-12-30T03:41:03.074Z,84.40
2017-12-30T03:43:30.646Z,84.50
2017-12-30T03:45:58.235Z,84.60
2017-12-30T03:48:25.879Z,84.60
2017-12-30T03:50:53.483Z,84.80
2017-12-30T03:53:21.069Z,84.90
2017-12-30T03:55:48.855Z,84.90
2017-12-30T03:58:16.456Z,85.30
2017-12-30T04:00:44.022Z,85.10
2017-12-30T04:03:12.065Z,85.10
2017-12-30T04:05:39.632Z,85.20
2017-12-30T04:08:07.361Z,85.40
2017-12-30T04:10:34.942Z,85.30
2017-12-30T04:13:02.536Z,85.30
2017-12-30T04:15:30.133Z,85.30
2017-12-30T04:17:57.792Z,85.30
2017-12-30T04:20:25.346Z,85.30
2017-12-30T04:22:52.916Z,85.30
2017-12-30T04:25:20.557Z,85.30
2017-12-30T04:27:48.154Z,85.30
2017-12-30T04:30:15.752Z,85.10
2017-12-30T04:32:43.371Z,85.00
2017-12-30T04:35:10.990Z,85.00
2017-12-30T04:37:38.850Z,85.00
2017-12-30T04:40:06.409Z,85.00
2017-12-30T04:42:33.995Z,85.30
2017-12-30T04:45:01.580Z,85.40
2017-12-30T04:47:29.414Z,85.50
2017-12-30T04:49:56.970Z,85.50
2017-12-30T04:52:24.584Z,85.50
2017-12-30T04:54:52.175Z,85.40
2017-12-30T04:57:19.764Z,85.40
2017-12-30T04:59:47.447Z,85.30
2017-12-30T05:02:15.058Z,85.30
2017-12-30T05:04:42.670Z,85.50
2017-12-30T05:07:10.285Z,85.10
2017-12-30T05:09:37.896Z,85.10
2017-12-30T05:12:05.905Z,85.00
2017-12-30T05:14:33.568Z,85.00
2017-12-30T05:17:01.206Z,85.30
2017-12-30T05:19:28.821Z,85.50
2017-12-30T05:21:56.402Z,85.50
2017-12-30T05:24:24.229Z,85.70
2017-12-30T05:26:51.782Z,85.70
2017-12-30T05:29:19.539Z,85.70
2017-12-30T05:31:47.121Z,85.80
2017-12-30T05:34:14.747Z,85.80
2017-12-30T05:36:42.451Z,85.90
2017-12-30T05:39:10.074Z,86.00
2017-12-30T05:41:37.623Z,85.40
2017-12-30T05:44:05.209Z,85.50
2017-12-30T05:46:32.795Z,85.10
2017-12-30T05:49:00.395Z,84.80
2017-12-30T05:51:27.965Z,83.60
2017-12-30T05:53:55.552Z,83.40
2017-12-30T05:56:23.116Z,82.60
2017-12-30T05:58:51.089Z,82.60
2017-12-30T06:01:18.687Z,82.40
2017-12-30T06:03:46.276Z,82.20
2017-12-30T06:06:13.910Z,82.10
2017-12-30T06:08:41.499Z,82.20
2017-12-30T06:11:09.065Z,81.70
2017-12-30T06:13:36.656Z,81.90
2017-12-30T06:16:04.219Z,82.00
2017-12-30T06:18:32.029Z,82.20
2017-12-30T06:20:59.619Z,82.30
2017-12-30T06:23:27.200Z,82.30
2017-12-30T06:25:54.807Z,82.60
2017-12-30T06:28:22.385Z,82.70
2017-12-30T06:30:49.999Z,82.80
2017-12-30T06:33:17.615Z,82.80
2017-12-30T06:35:45.548Z,82.90
2017-12-30T06:38:13.124Z,83.00
2017-12-30T06:40:40.753Z,83.40
2017-12-30T06:43:08.528Z,83.50
2017-12-30T06:45:36.141Z,83.50
2017-12-30T06:48:04.101Z,83.50
2017-12-30T06:50:31.699Z,83.60
2017-12-30T06:52:59.321Z,83.80
2017-12-30T06:55:26.927Z,83.90
2017-12-30T06:57:54.519Z,84.00
2017-12-30T07:00:22.154Z,84.10
2017-12-30T07:02:49.741Z,84.20
2017-12-30T07:05:17.355Z,85.10
2017-12-30T07:07:44.967Z,85.20
2017-12-30T07:10:12.573Z,85.40
2017-12-30T07:12:40.354Z,85.30
2017-12-30T07:15:07.960Z,84.60
2017-12-30T07:17:35.559Z,84.60
2017-12-30T07:20:03.151Z,84.60
2017-12-30T07:22:30.751Z,84.90
2017-12-30T07:24:58.319Z,85.20
2017-12-30T07:27:26.619Z,85.20
2017-12-30T07:29:54.260Z,85.60
2017-12-30T07:32:21.853Z,85.80
2017-12-30T07:34:49.702Z,85.50
2017-12-30T07:37:17.331Z,85.80
2017-12-30T07:39:44.881Z,86.60
2017-12-30T07:42:13.512Z,86.30
2017-12-30T07:44:41.092Z,86.70
2017-12-30T07:47:08.739Z,86.40
2017-12-30T07:49:36.383Z,86.70
2017-12-30T07:52:04.011Z,86.80
2017-12-30T07:54:31.605Z,86.70
2017-12-30T07:56:59.364Z,86.70
2017-12-30T07:59:27.036Z,86.80
2017-12-30T08:01:54.715Z,86.70
2017-12-30T08:04:22.327Z,86.50
2017-12-30T08:06:49.885Z,86.70
2017-12-30T08:09:17.742Z,86.80
2017-12-30T08:11:45.366Z,86.80
2017-12-30T08:14:13.004Z,86.50
2017-12-30T08:16:40.642Z,86.60
2017-12-30T08:19:08.231Z,86.60
2017-12-30T08:21:35.815Z,86.30
2017-12-30T08:24:03.934Z,86.00
2017-12-30T08:26:31.538Z,86.00
2017-12-30T08:28:59.143Z,86.00
2017-12-30T08:31:26.744Z,86.20
2017-12-30T08:33:54.349Z,86.20
2017-12-30T08:36:21.954Z,86.20
2017-12-30T08:38:49.531Z,85.80
2017-12-30T08:41:17.156Z,85.90
2017-12-30T08:43:44.727Z,85.80
2017-12-30T08:46:12.319Z,85.90
2017-12-30T08:48:39.911Z,86.20
2017-12-30T08:51:07.495Z,86.50
2017-12-30T08:53:35.100Z,86.40
2017-12-30T08:56:02.663Z,86.40
2017-12-30T08:58:30.272Z,86.60
2017-12-30T09:00:57.835Z,86.70
2017-12-30T09:03:25.456Z,86.50
2017-12-30T09:05:53.047Z,86.60
2017-12-30T09:08:20.635Z,86.50
2017-12-30T09:10:48.235Z,86.40
2017-12-30T09:13:15.827Z,86.50
2017-12-30T09:15:43.387Z,86.60
2017-12-30T09:18:10.954Z,86.00
2017-12-30T09:20:38.525Z,86.20
2017-12-30T09:23:06.118Z,86.40
2017-12-30T09:25:33.714Z,86.90
2017-12-30T09:28:01.323Z,87.10
2017-12-30T09:30:28.943Z,87.40
2017-12-30T09:32:56.683Z,87.30
2017-12-30T09:35:24.344Z,87.00
2017-12-30T09:37:51.937Z,86.90
2017-12-30T09:40:19.539Z,87.40
2017-12-30T09:42:47.089Z,87.10
2017-12-30T09:45:14.681Z,86.90
2017-12-30T09:47:43.228Z,87.10
2017-12-30T09:50:10.819Z,87.20
2017-12-30T09:52:38.433Z,87.20
2017-12-30T09:55:06.423Z,87.00
2017-12-30T09:57:34.036Z,87.00
2017-12-30T10:00:01.655Z,86.60
2017-12-30T10:02:29.252Z,86.30
2017-12-30T10:04:56.882Z,86.40
2017-12-30T10:07:24.538Z,86.60
2017-12-30T10:09:52.152Z,87.10
2017-12-30T10:12:20.173Z,86.70
2017-12-30T10:14:47.756Z,86.70
2017-12-30T10:17:15.411Z,86.70
2017-12-30T10:19:43.024Z,86.80
2017-12-30T10:22:10.595Z,87.10
2017-12-30T10:24:38.224Z,88.10
2017-12-30T10:27:05.816Z,88.00
2017-12-30T10:29:33.419Z,87.90
2017-12-30T10:32:01.038Z,87.20
2017-12-30T10:34:28.655Z,87.00
2017-12-30T10:36:56.251Z,86.90
2017-12-30T10:39:23.860Z,86.70
2017-12-30T10:41:51.432Z,86.50
2017-12-30T10:44:19.032Z,86.70
2017-12-30T10:46:46.624Z,86.60
2017-12-30T10:49:14.263Z,86.20
2017-12-30T10:51:41.904Z,85.70
2017-12-30T10:54:09.495Z,85.40
2017-12-30T10:56:37.135Z,85.40
2017-12-30T10:59:04.678Z,85.40
2017-12-30T11:01:32.251Z,85.30
2017-12-30T11:03:59.830Z,85.70
2017-12-30T11:06:27.396Z,85.50
2017-12-30T11:08:54.953Z,85.70
2017-12-30T11:11:22.557Z,85.40
2017-12-30T11:13:50.160Z,85.20
2017-12-30T11:16:17.802Z,84.90
2017-12-30T11:18:45.363Z,84.80
2017-12-30T11:21:12.955Z,84.50
2017-12-30T11:23:40.554Z,84.20
2017-12-30T11:26:08.137Z,84.10
2017-12-30T11:28:35.676Z,84.40
2017-12-30T11:31:03.270Z,85.10
2017-12-30T11:33:30.864Z,85.80
2017-12-30T11:35:58.487Z,86.70
2017-12-30T11:38:26.099Z,87.20
2017-12-30T11:40:53.703Z,87.60
2017-12-30T11:43:21.358Z,87.70
2017-12-30T11:45:48.923Z,87.60
2017-12-30T11:48:16.628Z,87.20
2017-12-30T11:50:44.194Z,86.20
2017-12-30T11:53:11.808Z,85.70
2017-12-30T11:55:39.948Z,84.80
2017-12-30T11:58:08.474Z,84.30
2017-12-30T12:00:36.098Z,83.50
2017-12-30T12:03:03.676Z,83.10
2017-12-30T12:05:31.263Z,83.20
2017-12-30T12:07:59.135Z,83.10
2017-12-30T12:10:26.723Z,83.20
2017-12-30T12:12:54.299Z,83.70
2017-12-30T12:15:21.879Z,84.60
2017-12-30T12:17:49.470Z,85.10
2017-12-30T12:20:17.053Z,85.30
2017-12-30T12:22:44.647Z,86.30
2017-12-30T12:25:12.211Z,86.70
2017-12-30T12:27:39.807Z,87.40
2017-12-30T12:30:07.376Z,88.00
2017-12-30T12:32:34.967Z,87.60
2017-12-30T12:35:02.551Z,86.80
2017-12-30T12:37:30.187Z,85.90
2017-12-30T12:39:57.750Z,85.60
2017-12-30T12:42:25.308Z,84.90
2017-12-30T12:44:53.335Z,84.10
2017-12-30T12:47:20.988Z,84.10
2017-12-30T12:49:48.569Z,84.00
2017-12-30T12:52:16.179Z,83.80
2017-12-30T12:54:43.805Z,83.10
2017-12-30T12:57:11.385Z,83.10
2017-12-30T12:59:39.054Z,83.00
2017-12-30T13:02:06.665Z,82.80
2017-12-30T13:04:34.263Z,82.50
2017-12-30T13:07:01.868Z,82.30
2017-12-30T13:09:29.461Z,82.40
2017-12-30T13:11:57.053Z,82.30
2017-12-30T13:14:24.681Z,82.30
2017-12-30T13:16:52.268Z,82.30
2017-12-30T13:19:19.899Z,82.10
2017-12-30T13:21:47.525Z,82.10
2017-12-30T13:24:15.124Z,82.00
2017-12-30T13:26:42.748Z,82.10
2017-12-30T13:29:10.362Z,82.00
2017-12-30T13:31:37.932Z,82.00
2017-12-30T13:34:05.521Z,82.00
2017-12-30T13:36:33.663Z,82.10
2017-12-30T13:39:01.279Z,82.00
2017-12-30T13:41:28.905Z,81.70
2017-12-30T13:43:56.487Z,81.70
2017-12-30T13:46:24.080Z,81.90
2017-12-30T13:48:51.667Z,81.70
2017-12-30T13:51:19.324Z,81.90
2017-12-30T13:53:46.904Z,82.00
2017-12-30T13:56:14.528Z,82.20
2017-12-30T13:58:42.108Z,82.40
2017-12-30T14:01:10.107Z,83.00
2017-12-30T14:03:37.699Z,83.00
2017-12-30T14:06:05.276Z,83.20
2017-12-30T14:08:32.867Z,83.40
2017-12-30T14:11:00.512Z,83.70
2017-12-30T14:13:28.493Z,84.10
2017-12-30T14:15:56.128Z,84.10
2017-12-30T14:18:23.717Z,84.30
2017-12-30T14:20:51.384Z,84.30
2017-12-30T14:23:18.965Z,84.20
2017-12-30T14:25:46.560Z,84.20
2017-12-30T14:28:14.112Z,84.30
2017-12-30T14:30:41.778Z,84.20
2017-12-30T14:33:09.456Z,84.30
2017-12-30T14:35:37.512Z,84.40
2017-12-30T14:38:05.103Z,84.40
2017-12-30T14:40:32.695Z,84.10
2017-12-30T14:43:00.282Z,83.90
2017-12-30T14:45:27.928Z,82.90
2017-12-30T14:47:55.483Z,82.00
2017-12-30T14:50:23.109Z,81.50
2017-12-30T14:52:50.693Z,81.00
2017-12-30T14:55:18.356Z,81.00
2017-12-30T14:57:45.982Z,81.00
2017-12-30T15:00:13.579Z,81.10
2017-12-30T15:02:41.235Z,81.10
2017-12-30T15:05:08.871Z,81.20
2017-12-30T15:07:36.459Z,81.40
2017-12-30T15:10:04.019Z,81.60
2017-12-30T15:12:31.671Z,81.60
2017-12-30T15:14:59.255Z,81.70
2017-12-30T15:17:26.898Z,81.70
2017-12-30T15:19:54.487Z,81.90
2017-12-30T15:22:22.551Z,82.10
2017-12-30T15:24:50.181Z,82.10
2017-12-30T15:27:17.808Z,82.40
2017-12-30T15:29:45.437Z,82.50
2017-12-30T15:32:13.076Z,82.80
2017-12-30T15:34:40.712Z,83.00
2017-12-30T15:37:08.308Z,84.40
2017-12-30T15:39:35.931Z,85.60
2017-12-30T15:42:03.568Z,86.40
2017-12-30T15:44:31.127Z,86.60
2017-12-30T15:46:58.719Z,86.70
2017-12-30T15:49:26.336Z,86.60
2017-12-30T15:51:53.971Z,86.30
2017-12-30T15:54:21.665Z,85.80
2017-12-30T15:56:49.327Z,84.60
2017-12-30T15:59:17.043Z,84.00
2017-12-30T16:01:44.616Z,83.70
2017-12-30T16:04:12.214Z,83.80
2017-12-30T16:06:39.785Z,83.60
2017-12-30T16:09:07.469Z,82.90
2017-12-30T16:11:35.053Z,82.50
2017-12-30T16:14:03.122Z,82.40
2017-12-30T16:16:30.699Z,82.40
2017-12-30T16:18:58.309Z,82.30
2017-12-30T16:21:25.915Z,82.40
2017-12-30T16:23:53.546Z,82.30
2017-12-30T16:26:21.128Z,82.30
2017-12-30T16:28:48.755Z,82.10
2017-12-30T16:31:16.346Z,82.00
2017-12-30T16:33:43.967Z,81.90
2017-12-30T16:36:11.581Z,81.70
2017-12-30T16:38:39.241Z,81.20
2017-12-30T16:41:06.902Z,81.30
2017-12-30T16:43:34.589Z,81.40
2017-12-30T16:46:02.156Z,81.20
2017-12-30T16:48:29.771Z,81.20
2017-12-30T16:50:57.392Z,80.90
2017-12-30T16:53:24.987Z,81.00
2017-12-30T16:55:52.585Z,80.90
2017-12-30T16:58:20.214Z,80.60
2017-12-30T17:00:47.919Z,80.80
2017-12-30T17:03:15.580Z,80.70
2017-12-30T17:05:43.139Z,80.70
2017-12-30T17:08:10.789Z,80.80
2017-12-30T17:10:38.440Z,80.80
2017-12-30T17:13:06.061Z,80.90
2017-12-30T17:15:33.715Z,81.00
2017-12-30T17:18:01.326Z,81.00
2017-12-30T17:20:28.991Z,81.00
2017-12-30T17:22:56.605Z,81.20
2017-12-30T17:25:24.251Z,81.70
2017-12-30T17:27:51.918Z,82.30
2017-12-30T17:30:19.565Z,84.10
2017-12-30T17:32:47.237Z,85.90
2017-12-30T17:35:14.890Z,87.20
2017-12-30T17:37:42.506Z,88.50
2017-12-30T17:40:10.139Z,89.20
2017-12-30T17:42:38.197Z,89.60
2017-12-30T17:45:06.932Z,89.80
2017-12-30T17:47:34.554Z,89.80
2017-12-30T17:50:02.650Z,89.90
2017-12-30T17:52:30.417Z,89.70
2017-12-30T17:54:58.152Z,89.60
2017-12-30T17:57:25.835Z,89.80
2017-12-30T17:59:53.471Z,89.90
2017-12-30T18:02:21.554Z,90.10
2017-12-30T18:04:49.667Z,90.10
2017-12-30T18:07:17.305Z,90.10
2017-12-30T18:09:45.034Z,90.10
2017-12-30T18:12:12.674Z,90.10
2017-12-30T18:14:40.326Z,89.80
2017-12-30T18:17:07.971Z,89.90
2017-12-30T18:19:35.582Z,89.90
2017-12-30T18:22:03.205Z,90.10
2017-12-30T18:24:30.855Z,89.80
2017-12-30T18:26:58.531Z,90.10
2017-12-30T18:29:26.240Z,90.00
2017-12-30T18:31:54.003Z,90.10
2017-12-30T18:34:21.628Z,90.10
2017-12-30T18:36:49.283Z,90.10
2017-12-30T18:39:16.916Z,90.00
2017-12-30T18:41:44.591Z,90.10
2017-12-30T18:44:13.081Z,90.30
2017-12-30T18:46:41.066Z,90.30
2017-12-30T18:49:09.093Z,90.30
2017-12-30T18:51:37.163Z,90.10
2017-12-30T18:54:04.791Z,90.10
2017-12-30T18:56:32.452Z,90.10
2017-12-30T18:59:00.087Z,90.10
2017-12-30T19:01:27.722Z,90.00
2017-12-30T19:03:55.370Z,90.00
2017-12-30T19:06:23.419Z,90.20
2017-12-30T19:08:51.061Z,90.10
2017-12-30T19:11:18.720Z,90.10
2017-12-30T19:13:46.374Z,90.10
2017-12-30T19:16:14.035Z,90.40
2017-12-30T19:18:41.707Z,90.30
2017-12-30T19:21:09.282Z,90.60
2017-12-30T19:23:36.941Z,90.80
2017-12-30T19:26:04.610Z,90.80
2017-12-30T19:28:32.269Z,91.00
2017-12-30T19:30:59.941Z,91.00
2017-12-30T19:33:27.655Z,91.10
2017-12-30T19:35:55.272Z,91.00
2017-12-30T19:38:22.923Z,91.10
2017-12-30T19:40:50.626Z,90.70
2017-12-30T19:43:18.214Z,91.00
2017-12-30T19:45:45.882Z,90.90
2017-12-30T19:48:13.562Z,91.00
2017-12-30T19:50:41.233Z,91.10
2017-12-30T19:53:08.890Z,91.30
2017-12-30T19:55:36.522Z,91.30
2017-12-30T19:58:04.184Z,91.30
2017-12-30T20:00:32.028Z,91.50
2017-12-30T20:02:59.691Z,91.20
2017-12-30T20:05:27.334Z,91.30
2017-12-30T20:07:54.969Z,91.50
2017-12-30T20:10:22.602Z,91.70
2017-12-30T20:12:50.232Z,91.50
2017-12-30T20:15:17.882Z,91.70
2017-12-30T20:17:45.519Z,91.60
2017-12-30T20:20:13.158Z,91.70
2017-12-30T20:22:40.810Z,91.60
2017-12-30T20:25:08.878Z,91.70
2017-12-30T20:27:36.541Z,91.70
2017-12-30T20:30:04.205Z,91.70
2017-12-30T20:32:32.255Z,91.60
2017-12-30T20:34:59.966Z,91.60
2017-12-30T20:37:27.583Z,91.50
2017-12-30T20:39:55.242Z,91.60
2017-12-30T20:42:22.909Z,91.50
2017-12-30T20:44:50.566Z,91.40
2017-12-30T20:47:18.226Z,91.40
2017-12-30T20:49:45.971Z,91.60
2017-12-30T20:52:14.039Z,91.50
2017-12-30T20:54:41.701Z,91.50
2017-12-30T20:57:09.889Z,91.60
2017-12-30T20:59:37.563Z,91.60
2017-12-30T21:02:05.214Z,91.40
2017-12-30T21:04:32.912Z,91.10
2017-12-30T21:07:00.562Z,91.10
2017-12-30T21:09:28.267Z,91.00
2017-12-30T21:11:55.940Z,91.10
2017-12-30T21:14:23.606Z,91.20
2017-12-30T21:16:51.259Z,91.00
2017-12-30T21:19:18.904Z,90.90
2017-12-30T21:21:46.671Z,91.40
2017-12-30T21:24:14.372Z,91.40
2017-12-30T21:26:42.020Z,91.60
2017-12-30T21:29:09.709Z,91.40
2017-12-30T21:31:37.325Z,91.40
2017-12-30T21:34:04.967Z,91.60
2017-12-30T21:36:32.650Z,91.60
2017-12-30T21:39:00.346Z,91.80
2017-12-30T21:41:28.010Z,91.50
2017-12-30T21:43:55.663Z,91.50
2017-12-30T21:46:23.714Z,91.20
2017-12-30T21:48:51.851Z,91.00
2017-12-30T21:51:19.509Z,91.00
2017-12-30T21:53:47.151Z,91.20
2017-12-30T21:56:14.829Z,91.40
2017-12-30T21:58:42.491Z,91.30
2017-12-30T22:01:10.177Z,91.00
2017-12-30T22:03:37.839Z,90.80
2017-12-30T22:06:05.506Z,90.80
2017-12-30T22:08:33.957Z,90.70
2017-12-30T22:11:01.624Z,90.70
2017-12-30T22:13:29.348Z,90.30
2017-12-30T22:15:56.995Z,90.30
2017-12-30T22:18:24.600Z,90.50
2017-12-30T22:20:52.249Z,90.60
2017-12-30T22:23:19.894Z,90.80
2017-12-30T22:25:47.559Z,90.30
2017-12-30T22:28:15.218Z,90.20
2017-12-30T22:30:42.855Z,89.70
2017-12-30T22:33:10.491Z,89.80
2017-12-30T22:35:38.155Z,89.90
2017-12-30T22:38:06.234Z,89.60
2017-12-30T22:40:33.979Z,89.60
2017-12-30T22:43:01.629Z,89.60
2017-12-30T22:45:29.315Z,89.50
2017-12-30T22:47:56.988Z,89.60
2017-12-30T22:50:24.643Z,90.10
2017-12-30T22:52:52.311Z,90.40
2017-12-30T22:55:19.990Z,90.70
2017-12-30T22:57:47.749Z,90.80
2017-12-30T23:00:15.398Z,90.70
2017-12-30T23:02:43.052Z,90.60
2017-12-30T23:05:10.715Z,90.80
2017-12-30T23:07:38.354Z,90.30
2017-12-30T23:10:06.008Z,90.00
2017-12-30T23:12:33.811Z,89.90
2017-12-30T23:15:01.470Z,89.50
2017-12-30T23:17:29.139Z,89.40
2017-12-30T23:19:56.785Z,88.50
2017-12-30T23:22:24.524Z,88.40
2017-12-30T23:24:52.161Z,88.00
2017-12-30T23:27:19.788Z,87.90
2017-12-30T23:29:47.427Z,87.90
2017-12-30T23:32:16.190Z,87.60
2017-12-30T23:34:44.256Z,87.20
2017-12-30T23:37:11.943Z,87.20
2017-12-30T23:39:39.643Z,86.60
2017-12-30T23:42:07.327Z,86.20
2017-12-30T23:44:34.957Z,85.90
2017-12-30T23:47:02.668Z,86.20
2017-12-30T23:49:30.358Z,86.70
2017-12-30T23:51:58.003Z,87.30
2017-12-30T23:54:25.676Z,88.10
2017-12-30T23:56:53.382Z,88.40
2017-12-30T23:59:21.016Z,89.20
